Time;durP1;ratioP1;P1;durP2;ratioP2;P2;SDS_P1;SDS_P2;PMS_P1;PMS_P2;Temp;Humidity;BMP_temperature;BMP_pressure;BME280_temperature;BME280_humidity;BME280_pressure;Samples;Min_cycle;Max_cycle;Signal;HPM_P1;HPM_P2
2021/08/04 00:00:59;;;;;;;;;;;;;;;;;;5037969;28;19928;-64
2021/08/04 00:03:26;;;;;;;;;;;;;;;;;;5037758;28;20279;-66
2021/08/04 00:05:53;;;;;;;;;;;;;;;;;;5030793;28;19932;-65
2021/08/04 00:08:20;;;;;;;;;;;;;;;;;;5027888;28;20407;-66
2021/08/04 00:10:47;;;;;;;;;;;;;;;;;;5033329;28;19975;-65
2021/08/04 00:13:14;;;;;;;;;;;;;;;;;;5036048;28;19925;-66
2021/08/04 00:15:40;;;;;;;;;;;;;;;;;;5029450;28;19929;-65
2021/08/04 00:18:07;;;;;;;;;;;;;;;;;;5017791;28;20412;-66
2021/08/04 00:20:34;;;;;;;;;;;;;;;;;;5024676;28;20302;-65
2021/08/04 00:23:01;;;;;;;;;;;;;;;;;;5028312;28;19929;-66
2021/08/04 00:25:28;;;;;;;;;;;;;;;;;;5032806;28;19925;-66
2021/08/04 00:27:55;;;;;;;;;;;;;;;;;;5022685;28;19926;-65
2021/08/04 00:30:22;;;;;;;;;;;;;;;;;;5037612;28;19928;-66
2021/08/04 00:32:53;;;;;;;;;;;;;;;;;;5022726;28;19929;-65
2021/08/04 00:35:20;;;;;;;;;;;;;;;;;;5026321;28;19971;-66
2021/08/04 00:37:47;;;;;;;;;;;;;;;;;;5026220;28;19925;-65
2021/08/04 00:40:14;;;;;;;;;;;;;;;;;;5024139;28;20028;-64
2021/08/04 00:42:41;;;;;;;;;;;;;;;;;;5024319;28;20281;-64
2021/08/04 00:45:08;;;;;;;;;;;;;;;;;;5017805;28;19925;-65
2021/08/04 00:47:35;;;;;;;;;;;;;;;;;;5014042;28;19932;-64
2021/08/04 00:50:02;;;;;;;;;;;;;;;;;;5024283;28;20385;-64
2021/08/04 00:52:29;;;;;;;;;;;;;;;;;;5037098;28;20320;-64
2021/08/04 00:54:56;;;;;;;;;;;;;;;;;;5046371;28;19925;-65
2021/08/04 00:57:23;;;;;;;;;;;;;;;;;;5043355;28;19925;-65
2021/08/04 00:59:50;;;;;;;;;;;;;;;;;;5042933;28;19941;-65
2021/08/04 01:02:17;;;;;;;;;;;;;;;;;;5039725;28;19932;-65
2021/08/04 01:04:44;;;;;;;;;;;;;;;;;;5035500;28;19925;-64
2021/08/04 01:07:11;;;;;;;;;;;;;;;;;;5034500;28;19924;-65
2021/08/04 01:09:38;;;;;;;;;;;;;;;;;;5034943;28;19929;-66
2021/08/04 01:12:07;;;;;;;;;;;;;;;;;;5033776;28;20297;-65
2021/08/04 01:14:34;;;;;;;;;;;;;;;;;;5031939;28;20023;-65
2021/08/04 01:17:01;;;;;;;;;;;;;;;;;;5031372;28;20357;-64
2021/08/04 01:19:28;;;;;;;;;;;;;;;;;;5028596;28;19925;-66
2021/08/04 01:21:55;;;;;;;;;;;;;;;;;;5023592;28;19932;-65
2021/08/04 01:24:22;;;;;;;;;;;;;;;;;;5034141;28;19925;-65
2021/08/04 01:26:49;;;;;;;;;;;;;;;;;;5027392;28;20411;-65
2021/08/04 01:29:16;;;;;;;;;;;;;;;;;;5027273;28;19925;-65
2021/08/04 01:31:43;;;;;;;;;;;;;;;;;;5035359;28;19929;-64
2021/08/04 01:34:09;;;;;;;;;;;;;;;;;;5040070;28;19925;-65
2021/08/04 01:36:36;;;;;;;;;;;;;;;;;;5027314;28;19925;-64
2021/08/04 01:39:03;;;;;;;;;;;;;;;;;;5030243;28;19925;-64
2021/08/04 01:41:30;;;;;;;;;;;;;;;;;;5032057;28;19929;-65
2021/08/04 01:43:57;;;;;;;;;;;;;;;;;;5021841;28;19932;-65
2021/08/04 01:46:24;;;;;;;;;;;;;;;;;;5025499;28;19956;-65
2021/08/04 01:48:51;;;;;;;;;;;;;;;;;;5025343;28;19942;-64
2021/08/04 01:51:18;;;;;;;;;;;;;;;;;;5023508;28;19932;-65
2021/08/04 01:53:46;;;;;;;;;;;;;;;;;;5030576;28;20472;-65
2021/08/04 01:56:14;;;;;;;;;;;;;;;;;;5029022;28;20003;-66
2021/08/04 01:58:41;;;;;;;;;;;;;;;;;;5036964;28;19925;-65
2021/08/04 02:01:08;;;;;;;;;;;;;;;;;;5033129;28;19932;-66
2021/08/04 02:03:35;;;;;;;;;;;;;;;;;;5032203;28;19925;-66
2021/08/04 02:06:02;;;;;;;;;;;;;;;;;;5027528;28;19935;-65
2021/08/04 02:08:29;;;;;;;;;;;;;;;;;;5022368;28;20424;-65
2021/08/04 02:10:56;;;;;;;;;;;;;;;;;;5013841;28;19980;-65
2021/08/04 02:13:23;;;;;;;;;;;;;;;;;;5025639;28;19925;-65
2021/08/04 02:15:50;;;;;;;;;;;;;;;;;;5027246;28;19925;-63
2021/08/04 02:18:17;;;;;;;;;;;;;;;;;;5026786;28;20068;-65
2021/08/04 02:20:45;;;;;;;;;;;;;;;;;;5040025;28;19925;-65
2021/08/04 02:23:12;;;;;;;;;;;;;;;;;;5020261;28;19930;-65
2021/08/04 02:25:39;;;;;;;;;;;;;;;;;;5015860;28;20385;-65
2021/08/04 02:28:06;;;;;;;;;;;;;;;;;;5026658;28;19929;-65
2021/08/04 02:30:33;;;;;;;;;;;;;;;;;;5015490;28;19936;-65
2021/08/04 02:33:00;;;;;;;;;;;;;;;;;;5014903;28;19941;-65
2021/08/04 02:35:26;;;;;;;;;;;;;;;;;;5021492;28;19925;-64
2021/08/04 02:37:53;;;;;;;;;;;;;;;;;;5032127;28;19924;-64
2021/08/04 02:40:20;;;;;;;;;;;;;;;;;;5043643;28;19932;-64
2021/08/04 02:42:47;;;;;;;;;;;;;;;;;;5030060;28;20308;-65
2021/08/04 02:45:14;;;;;;;;;;;;;;;;;;5036852;28;19925;-65
2021/08/04 02:47:41;;;;;;;;;;;;;;;;;;5033913;28;19932;-65
2021/08/04 02:50:08;;;;;;;;;;;;;;;;;;5040763;28;19924;-65
2021/08/04 02:52:35;;;;;;;;;;;;;;;;;;5028521;28;19932;-65
2021/08/04 02:55:02;;;;;;;;;;;;;;;;;;5046972;28;20313;-65
2021/08/04 02:57:29;;;;;;;;;;;;;;;;;;5042194;28;19929;-65
2021/08/04 02:59:56;;;;;;;;;;;;;;;;;;5043486;28;19931;-65
2021/08/04 03:02:23;;;;;;;;;;;;;;;;;;5047951;28;19935;-65
2021/08/04 03:04:49;;;;;;;;;;;;;;;;;;5043353;28;19928;-65
2021/08/04 03:07:16;;;;;;;;;;;;;;;;;;5035090;28;19929;-65
2021/08/04 03:09:43;;;;;;;;;;;;;;;;;;5042968;28;19925;-65
2021/08/04 03:12:10;;;;;;;;;;;;;;;;;;5038220;28;19925;-64
2021/08/04 03:14:37;;;;;;;;;;;;;;;;;;5042189;28;20219;-65
2021/08/04 03:17:04;;;;;;;;;;;;;;;;;;5033161;28;19924;-64
2021/08/04 03:19:31;;;;;;;;;;;;;;;;;;5030900;28;19925;-66
2021/08/04 03:21:58;;;;;;;;;;;;;;;;;;5044156;28;20456;-65
2021/08/04 03:24:25;;;;;;;;;;;;;;;;;;5027024;28;19925;-65
2021/08/04 03:26:52;;;;;;;;;;;;;;;;;;5026651;28;19929;-65
2021/08/04 03:29:19;;;;;;;;;;;;;;;;;;5041781;28;20278;-65
2021/08/04 03:31:46;;;;;;;;;;;;;;;;;;5040872;28;19925;-65
2021/08/04 03:34:13;;;;;;;;;;;;;;;;;;5032971;28;19933;-65
2021/08/04 03:36:40;;;;;;;;;;;;;;;;;;5038136;28;19925;-65
2021/08/04 03:39:06;;;;;;;;;;;;;;;;;;5039005;28;19933;-65
2021/08/04 03:41:33;;;;;;;;;;;;;;;;;;5060662;22;19924;-66
2021/08/04 03:44:00;;;;;;;;;;;;;;;;;;5040016;28;19948;-69
2021/08/04 03:46:27;;;;;;;;;;;;;;;;;;5042695;28;19925;-68
2021/08/04 03:48:54;;;;;;;;;;;;;;;;;;5025551;28;19925;-68
2021/08/04 03:51:21;;;;;;;;;;;;;;;;;;5035183;28;20004;-68
2021/08/04 03:53:48;;;;;;;;;;;;;;;;;;5046833;28;20473;-68
2021/08/04 03:56:15;;;;;;;;;;;;;;;;;;5031783;28;19932;-68
2021/08/04 03:58:42;;;;;;;;;;;;;;;;;;5031409;28;19944;-68
2021/08/04 04:01:09;;;;;;;;;;;;;;;;;;5035005;28;19925;-68
2021/08/04 04:03:36;;;;;;;;;;;;;;;;;;5031505;28;20262;-68
2021/08/04 04:06:03;;;;;;;;;;;;;;;;;;5031415;28;19932;-73
2021/08/04 04:08:30;;;;;;;;;;;;;;;;;;5025305;28;19968;-68
2021/08/04 04:10:57;;;;;;;;;;;;;;;;;;5029764;28;19932;-68
2021/08/04 04:13:24;;;;;;;;;;;;;;;;;;5026333;28;19929;-68
2021/08/04 04:15:51;;;;;;;;;;;;;;;;;;5024026;28;19976;-68
2021/08/04 04:18:18;;;;;;;;;;;;;;;;;;5021342;28;20385;-68
2021/08/04 04:20:45;;;;;;;;;;;;;;;;;;5033405;28;19932;-68
2021/08/04 04:23:12;;;;;;;;;;;;;;;;;;5024653;28;20017;-68
2021/08/04 04:25:38;;;;;;;;;;;;;;;;;;5033963;28;19932;-68
2021/08/04 04:28:05;;;;;;;;;;;;;;;;;;5032793;28;19940;-68
2021/08/04 04:30:32;;;;;;;;;;;;;;;;;;5037494;28;19925;-68
2021/08/04 04:32:59;;;;;;;;;;;;;;;;;;5039815;28;19924;-68
2021/08/04 04:35:26;;;;;;;;;;;;;;;;;;5031133;28;19933;-68
2021/08/04 04:37:53;;;;;;;;;;;;;;;;;;5034300;28;19931;-68
2021/08/04 04:40:20;;;;;;;;;;;;;;;;;;5027222;28;19931;-68
2021/08/04 04:42:47;;;;;;;;;;;;;;;;;;5036120;28;19976;-69
2021/08/04 04:45:14;;;;;;;;;;;;;;;;;;5037250;28;19924;-68
2021/08/04 04:47:41;;;;;;;;;;;;;;;;;;5035300;28;19937;-69
2021/08/04 04:50:08;;;;;;;;;;;;;;;;;;5031250;28;19925;-69
2021/08/04 04:52:35;;;;;;;;;;;;;;;;;;5030195;28;19926;-67
2021/08/04 04:55:02;;;;;;;;;;;;;;;;;;5030542;28;19925;-68
2021/08/04 04:57:29;;;;;;;;;;;;;;;;;;5032951;28;19999;-69
2021/08/04 04:59:56;;;;;;;;;;;;;;;;;;5031695;28;20316;-68
2021/08/04 05:02:23;;;;;;;;;;;;;;;;;;5031658;28;19925;-68
2021/08/04 05:04:50;;;;;;;;;;;;;;;;;;5050183;28;19931;-69
2021/08/04 05:07:17;;;;;;;;;;;;;;;;;;5042870;28;19965;-68
2021/08/04 05:09:44;;;;;;;;;;;;;;;;;;5043646;28;19932;-67
2021/08/04 05:12:11;;;;;;;;;;;;;;;;;;5033332;28;19935;-68
2021/08/04 05:14:40;;;;;;;;;;;;;;;;;;5031297;28;19925;-68
2021/08/04 05:17:10;;;;;;;;;;;;;;;;;;5048279;28;19933;-69
2021/08/04 05:19:37;;;;;;;;;;;;;;;;;;5047029;28;19936;-69
2021/08/04 05:22:04;;;;;;;;;;;;;;;;;;5038309;28;19925;-68
2021/08/04 05:24:31;;;;;;;;;;;;;;;;;;5024907;28;20154;-68
2021/08/04 05:26:58;;;;;;;;;;;;;;;;;;5026509;28;19926;-67
2021/08/04 05:29:25;;;;;;;;;;;;;;;;;;5037098;28;19929;-67
2021/08/04 05:31:52;;;;;;;;;;;;;;;;;;5027987;28;20300;-67
2021/08/04 05:34:19;;;;;;;;;;;;;;;;;;5028825;28;19931;-69
2021/08/04 05:36:46;;;;;;;;;;;;;;;;;;5031524;28;19926;-69
2021/08/04 05:39:13;;;;;;;;;;;;;;;;;;5032242;28;19941;-68
2021/08/04 05:41:40;;;;;;;;;;;;;;;;;;5029028;28;19929;-68
2021/08/04 05:44:07;;;;;;;;;;;;;;;;;;5025414;28;20380;-68
2021/08/04 05:46:34;;;;;;;;;;;;;;;;;;5035049;28;19932;-69
2021/08/04 05:49:01;;;;;;;;;;;;;;;;;;5022270;28;19925;-68
2021/08/04 05:51:28;;;;;;;;;;;;;;;;;;5025157;28;19925;-69
2021/08/04 05:53:54;;;;;;;;;;;;;;;;;;5025785;28;19972;-68
2021/08/04 05:56:21;;;;;;;;;;;;;;;;;;5030390;28;20236;-68
2021/08/04 05:58:48;;;;;;;;;;;;;;;;;;5022555;28;19925;-68
2021/08/04 06:01:15;;;;;;;;;;;;;;;;;;5037928;28;19925;-68
2021/08/04 06:03:42;;;;;;;;;;;;;;;;;;5032685;28;19924;-67
2021/08/04 06:06:09;;;;;;;;;;;;;;;;;;5027827;28;19925;-67
2021/08/04 06:08:36;;;;;;;;;;;;;;;;;;5033180;28;19970;-68
2021/08/04 06:11:03;;;;;;;;;;;;;;;;;;5021543;28;19932;-68
2021/08/04 06:13:30;;;;;;;;;;;;;;;;;;5040408;28;20116;-68
2021/08/04 06:15:57;;;;;;;;;;;;;;;;;;5037098;28;20313;-68
2021/08/04 06:18:24;;;;;;;;;;;;;;;;;;5042743;28;19925;-69
2021/08/04 06:20:51;;;;;;;;;;;;;;;;;;5031882;28;19937;-69
2021/08/04 06:23:18;;;;;;;;;;;;;;;;;;5032582;28;19933;-67
2021/08/04 06:25:45;;;;;;;;;;;;;;;;;;5033731;28;19926;-67
2021/08/04 06:28:12;;;;;;;;;;;;;;;;;;5026388;28;19926;-67
2021/08/04 06:30:39;;;;;;;;;;;;;;;;;;5029865;28;20300;-68
2021/08/04 06:33:06;;;;;;;;;;;;;;;;;;5037731;28;19931;-68
2021/08/04 06:35:33;;;;;;;;;;;;;;;;;;5040709;28;19932;-68
2021/08/04 06:38:00;;;;;;;;;;;;;;;;;;5036671;28;19925;-67
2021/08/04 06:40:27;;;;;;;;;;;;;;;;;;5031554;28;19940;-66
2021/08/04 06:42:54;;;;;;;;;;;;;;;;;;5031948;28;19937;-68
2021/08/04 06:45:21;;;;;;;;;;;;;;;;;;5029741;28;19925;-68
2021/08/04 06:47:48;;;;;;;;;;;;;;;;;;5023735;28;19932;-68
2021/08/04 06:50:15;;;;;;;;;;;;;;;;;;5025210;28;19934;-68
2021/08/04 06:52:42;;;;;;;;;;;;;;;;;;5025815;28;19929;-67
2021/08/04 06:55:09;;;;;;;;;;;;;;;;;;5033007;28;19971;-68
2021/08/04 06:57:36;;;;;;;;;;;;;;;;;;5028468;28;19925;-69
2021/08/04 07:00:03;;;;;;;;;;;;;;;;;;5031665;28;19929;-68
2021/08/04 07:02:30;;;;;;;;;;;;;;;;;;5031739;28;19931;-67
2021/08/04 07:04:57;;;;;;;;;;;;;;;;;;5039865;28;19925;-68
2021/08/04 07:07:24;;;;;;;;;;;;;;;;;;5033627;28;20203;-68
2021/08/04 07:09:51;;;;;;;;;;;;;;;;;;5037872;28;19925;-69
2021/08/04 07:12:18;;;;;;;;;;;;;;;;;;5030743;28;20035;-68
2021/08/04 07:14:44;;;;;;;;;;;;;;;;;;5037910;28;19936;-68
2021/08/04 07:17:11;;;;;;;;;;;;;;;;;;5031289;28;20459;-68
2021/08/04 07:19:39;;;;;;;;;;;;;;;;;;5034848;28;19925;-68
2021/08/04 07:22:06;;;;;;;;;;;;;;;;;;5039656;28;19933;-69
2021/08/04 07:24:33;;;;;;;;;;;;;;;;;;5034445;28;19948;-67
2021/08/04 07:27:00;;;;;;;;;;;;;;;;;;5037356;28;19932;-67
2021/08/04 07:29:27;;;;;;;;;;;;;;;;;;5035355;28;19931;-68
2021/08/04 07:31:54;;;;;;;;;;;;;;;;;;5029220;28;20063;-68
2021/08/04 07:34:24;;;;;;;;;;;;;;;;;;5041429;28;19935;-69
2021/08/04 07:36:51;;;;;;;;;;;;;;;;;;5044520;28;19971;-68
2021/08/04 07:39:18;;;;;;;;;;;;;;;;;;5041516;28;19925;-69
2021/08/04 07:41:45;;;;;;;;;;;;;;;;;;5027728;28;19925;-67
2021/08/04 07:44:12;;;;;;;;;;;;;;;;;;5033803;28;19925;-68
2021/08/04 07:46:39;;;;;;;;;;;;;;;;;;5033850;28;19925;-68
2021/08/04 07:49:06;;;;;;;;;;;;;;;;;;5033978;28;20299;-68
2021/08/04 07:51:33;;;;;;;;;;;;;;;;;;5033548;28;19925;-68
2021/08/04 07:54:00;;;;;;;;;;;;;;;;;;5033557;28;20047;-68
2021/08/04 07:56:27;;;;;;;;;;;;;;;;;;5035999;28;19925;-68
2021/08/04 07:58:54;;;;;;;;;;;;;;;;;;5030337;28;20369;-68
2021/08/04 08:01:21;;;;;;;;;;;;;;;;;;5032905;28;19931;-66
2021/08/04 08:03:48;;;;;;;;;;;;;;;;;;5025944;28;19925;-70
2021/08/04 08:06:15;;;;;;;;;;;;;;;;;;5034931;28;19925;-68
2021/08/04 08:08:43;;;;;;;;;;;;;;;;;;5029355;28;19929;-68
2021/08/04 08:11:10;;;;;;;;;;;;;;;;;;5032076;28;20296;-69
2021/08/04 08:13:37;;;;;;;;;;;;;;;;;;5030577;28;19925;-69
2021/08/04 08:16:03;;;;;;;;;;;;;;;;;;5031884;28;20287;-70
2021/08/04 08:18:30;;;;;;;;;;;;;;;;;;5028550;28;19925;-70
2021/08/04 08:20:57;;;;;;;;;;;;;;;;;;5045895;28;19988;-69
2021/08/04 08:23:24;;;;;;;;;;;;;;;;;;5036572;28;19931;-70
2021/08/04 08:25:51;;;;;;;;;;;;;;;;;;5033210;28;19925;-68
2021/08/04 08:28:19;;;;;;;;;;;;;;;;;;5033866;28;19948;-69
2021/08/04 08:30:46;;;;;;;;;;;;;;;;;;5029842;28;20012;-69
2021/08/04 08:33:13;;;;;;;;;;;;;;;;;;5034870;28;20305;-67
2021/08/04 08:35:40;;;;;;;;;;;;;;;;;;5034828;28;19972;-69
2021/08/04 08:38:07;;;;;;;;;;;;;;;;;;5033035;28;19924;-68
2021/08/04 08:40:34;;;;;;;;;;;;;;;;;;5031871;28;19960;-67
2021/08/04 08:43:01;;;;;;;;;;;;;;;;;;5035337;28;19925;-67
2021/08/04 08:45:28;;;;;;;;;;;;;;;;;;5035218;28;20352;-68
2021/08/04 08:47:55;;;;;;;;;;;;;;;;;;5038384;28;20007;-68
2021/08/04 08:50:26;;;;;;;;;;;;;;;;;;5033080;28;20304;-68
2021/08/04 08:52:53;;;;;;;;;;;;;;;;;;5030721;28;20373;-67
2021/08/04 08:55:20;;;;;;;;;;;;;;;;;;5029726;28;19933;-68
2021/08/04 08:57:47;;;;;;;;;;;;;;;;;;5029694;28;19925;-68
2021/08/04 09:00:14;;;;;;;;;;;;;;;;;;5029994;28;20280;-68
2021/08/04 09:02:41;;;;;;;;;;;;;;;;;;5030631;28;20300;-67
2021/08/04 09:05:08;;;;;;;;;;;;;;;;;;5036921;28;20396;-71
2021/08/04 09:07:35;;;;;;;;;;;;;;;;;;5032561;28;20012;-69
2021/08/04 09:10:02;;;;;;;;;;;;;;;;;;5031509;28;19931;-68
2021/08/04 09:12:29;;;;;;;;;;;;;;;;;;5031504;28;19932;-69
2021/08/04 09:14:55;;;;;;;;;;;;;;;;;;5034663;28;19948;-68
2021/08/04 09:17:22;;;;;;;;;;;;;;;;;;5027419;28;20384;-69
2021/08/04 09:19:50;;;;;;;;;;;;;;;;;;5029849;28;19925;-69
2021/08/04 09:22:19;;;;;;;;;;;;;;;;;;5031382;28;21184;-68
2021/08/04 09:24:46;;;;;;;;;;;;;;;;;;5029694;28;20016;-68
2021/08/04 09:27:13;;;;;;;;;;;;;;;;;;5032367;28;20039;-68
2021/08/04 09:29:40;;;;;;;;;;;;;;;;;;5031371;28;19924;-69
2021/08/04 09:32:07;;;;;;;;;;;;;;;;;;5029429;28;19925;-70
2021/08/04 09:34:34;;;;;;;;;;;;;;;;;;5033481;28;20509;-67
2021/08/04 09:37:01;;;;;;;;;;;;;;;;;;5029317;28;19933;-68
2021/08/04 09:39:28;;;;;;;;;;;;;;;;;;5034317;28;20586;-69
2021/08/04 09:41:55;;;;;;;;;;;;;;;;;;5040451;22;20288;-65
2021/08/04 09:44:22;;;;;;;;;;;;;;;;;;5027109;28;20377;-65
2021/08/04 09:46:49;;;;;;;;;;;;;;;;;;5029430;28;20434;-66
2021/08/04 09:49:16;;;;;;;;;;;;;;;;;;5031333;28;19925;-66
2021/08/04 09:51:43;;;;;;;;;;;;;;;;;;5031896;28;19955;-66
2021/08/04 09:54:10;;;;;;;;;;;;;;;;;;5030948;28;19925;-66
2021/08/04 09:56:37;;;;;;;;;;;;;;;;;;5033130;28;19925;-66
2021/08/04 09:59:04;;;;;;;;;;;;;;;;;;5025331;28;19948;-65
2021/08/04 10:01:31;;;;;;;;;;;;;;;;;;5034228;28;19928;-65
2021/08/04 10:03:58;;;;;;;;;;;;;;;;;;5027680;28;19926;-65
2021/08/04 10:06:25;;;;;;;;;;;;;;;;;;5025868;28;19926;-66
2021/08/04 10:08:52;;;;;;;;;;;;;;;;;;5034097;28;19936;-66
2021/08/04 10:11:19;;;;;;;;;;;;;;;;;;5027486;28;19929;-65
2021/08/04 10:13:46;;;;;;;;;;;;;;;;;;5022566;28;19928;-66
2021/08/04 10:16:12;;;;;;;;;;;;;;;;;;5026013;28;19925;-66
2021/08/04 10:18:39;;;;;;;;;;;;;;;;;;5027445;28;20266;-66
2021/08/04 10:21:08;;;;;;;;;;;;;;;;;;5023276;28;19925;-66
2021/08/04 10:23:35;;;;;;;;;;;;;;;;;;5023277;28;19929;-66
2021/08/04 10:26:02;;;;;;;;;;;;;;;;;;5024554;28;19964;-66
2021/08/04 10:28:29;;;;;;;;;;;;;;;;;;5022957;28;19925;-66
2021/08/04 10:30:56;;;;;;;;;;;;;;;;;;5019929;28;19925;-67
2021/08/04 10:33:23;;;;;;;;;;;;;;;;;;5024322;28;20029;-66
2021/08/04 10:35:50;;;;;;;;;;;;;;;;;;5018007;28;20300;-66
2021/08/04 10:38:17;;;;;;;;;;;;;;;;;;5023886;28;19925;-66
2021/08/04 10:40:44;;;;;;;;;;;;;;;;;;5023080;28;20407;-67
2021/08/04 10:43:11;;;;;;;;;;;;;;;;;;5020905;28;19936;-66
2021/08/04 10:45:38;;;;;;;;;;;;;;;;;;5021657;28;19932;-67
2021/08/04 10:48:04;;;;;;;;;;;;;;;;;;5023667;28;19925;-67
2021/08/04 10:50:31;;;;;;;;;;;;;;;;;;5027143;28;19929;-67
2021/08/04 10:52:58;;;;;;;;;;;;;;;;;;5021917;28;20378;-67
2021/08/04 10:55:25;;;;;;;;;;;;;;;;;;5023468;28;19932;-67
2021/08/04 10:57:52;;;;;;;;;;;;;;;;;;5024629;28;19931;-67
2021/08/04 11:00:19;;;;;;;;;;;;;;;;;;5022093;28;20366;-67
2021/08/04 11:02:46;;;;;;;;;;;;;;;;;;5021936;28;19925;-67
2021/08/04 11:05:13;;;;;;;;;;;;;;;;;;5019692;28;19932;-66
2021/08/04 11:07:40;;;;;;;;;;;;;;;;;;5021070;28;19940;-67
2021/08/04 11:10:07;;;;;;;;;;;;;;;;;;5024063;28;19932;-67
2021/08/04 11:12:34;;;;;;;;;;;;;;;;;;5025499;28;19932;-67
2021/08/04 11:15:02;;;;;;;;;;;;;;;;;;5032352;28;19939;-67
2021/08/04 11:17:29;;;;;;;;;;;;;;;;;;5032379;28;20016;-67
2021/08/04 11:19:56;;;;;;;;;;;;;;;;;;5031215;28;19975;-67
2021/08/04 11:22:23;;;;;;;;;;;;;;;;;;5030552;28;19929;-66
2021/08/04 11:24:50;;;;;;;;;;;;;;;;;;5025621;28;19932;-66
2021/08/04 11:27:17;;;;;;;;;;;;;;;;;;5024474;28;19926;-66
2021/08/04 11:29:43;;;;;;;;;;;;;;;;;;5027433;28;19931;-67
2021/08/04 11:32:10;;;;;;;;;;;;;;;;;;5028611;28;20023;-67
2021/08/04 11:34:37;;;;;;;;;;;;;;;;;;5027507;28;20211;-67
2021/08/04 11:37:04;;;;;;;;;;;;;;;;;;5028681;28;19968;-67
2021/08/04 11:39:31;;;;;;;;;;;;;;;;;;5025877;28;19932;-67
2021/08/04 11:42:00;;;;;;;;;;;;;;;;;;5027815;28;19925;-67
2021/08/04 11:44:27;;;;;;;;;;;;;;;;;;5025297;28;19933;-67
2021/08/04 11:46:55;;;;;;;;;;;;;;;;;;5026976;28;19932;-67
2021/08/04 11:49:22;;;;;;;;;;;;;;;;;;5027259;28;20011;-67
2021/08/04 11:51:49;;;;;;;;;;;;;;;;;;5028766;28;19925;-67
2021/08/04 11:54:16;;;;;;;;;;;;;;;;;;5023587;28;19925;-67
2021/08/04 11:56:43;;;;;;;;;;;;;;;;;;5025437;28;19929;-67
2021/08/04 11:59:10;;;;;;;;;;;;;;;;;;5026424;28;19956;-66
2021/08/04 12:01:37;;;;;;;;;;;;;;;;;;5027838;28;19933;-66
2021/08/04 12:04:04;;;;;;;;;;;;;;;;;;5028765;28;19925;-67
2021/08/04 12:06:33;;;;;;;;;;;;;;;;;;5026879;28;19930;-66
2021/08/04 12:09:00;;;;;;;;;;;;;;;;;;5025669;28;19926;-66
2021/08/04 12:11:27;;;;;;;;;;;;;;;;;;5025379;28;19942;-67
2021/08/04 12:13:54;;;;;;;;;;;;;;;;;;5032354;28;20011;-67
2021/08/04 12:16:21;;;;;;;;;;;;;;;;;;5024481;28;19932;-67
2021/08/04 12:18:48;;;;;;;;;;;;;;;;;;5027062;28;19925;-67
2021/08/04 12:21:14;;;;;;;;;;;;;;;;;;5025738;28;20077;-67
2021/08/04 12:23:41;;;;;;;;;;;;;;;;;;5025830;28;19933;-67
2021/08/04 12:26:10;;;;;;;;;;;;;;;;;;5021990;28;20362;-67
2021/08/04 12:28:37;;;;;;;;;;;;;;;;;;5028205;28;19974;-67
2021/08/04 12:31:04;;;;;;;;;;;;;;;;;;5024283;28;19925;-67
2021/08/04 12:33:45;;;;;;;;;;;;;;;;;;5027504;28;19957;-67
2021/08/04 12:36:22;;;;;;;;;;;;;;;;;;5028282;28;20110;-67
2021/08/04 12:38:51;;;;;;;;;;;;;;;;;;5027245;28;19954;-67
2021/08/04 12:41:18;;;;;;;;;;;;;;;;;;5024455;28;20304;-67
2021/08/04 12:43:45;;;;;;;;;;;;;;;;;;5024215;28;19931;-64
2021/08/04 12:46:12;;;;;;;;;;;;;;;;;;5029781;28;19940;-65
2021/08/04 12:48:39;;;;;;;;;;;;;;;;;;5024749;28;19928;-65
2021/08/04 12:51:06;;;;;;;;;;;;;;;;;;5027910;28;19925;-63
2021/08/04 12:53:33;;;;;;;;;;;;;;;;;;5029070;28;19979;-66
2021/08/04 12:56:00;;;;;;;;;;;;;;;;;;5028138;28;19925;-65
2021/08/04 12:58:27;;;;;;;;;;;;;;;;;;5026341;28;19987;-65
2021/08/04 13:00:54;;;;;;;;;;;;;;;;;;5033766;28;19931;-65
2021/08/04 13:03:21;;;;;;;;;;;;;;;;;;5032491;28;20032;-64
2021/08/04 13:05:48;;;;;;;;;;;;;;;;;;5030075;28;19925;-68
2021/08/04 13:08:15;;;;;;;;;;;;;;;;;;5030039;28;19931;-64
2021/08/04 13:10:42;;;;;;;;;;;;;;;;;;5034794;28;20412;-64
2021/08/04 13:13:09;;;;;;;;;;;;;;;;;;5030336;28;19953;-65
2021/08/04 13:15:36;;;;;;;;;;;;;;;;;;5028536;28;20016;-64
2021/08/04 13:18:03;;;;;;;;;;;;;;;;;;5032761;28;19924;-65
2021/08/04 13:20:30;;;;;;;;;;;;;;;;;;5028155;28;19925;-65
2021/08/04 13:22:57;;;;;;;;;;;;;;;;;;5027937;28;19926;-65
2021/08/04 13:25:24;;;;;;;;;;;;;;;;;;5030083;28;19926;-65
2021/08/04 13:27:51;;;;;;;;;;;;;;;;;;5034173;28;20019;-65
2021/08/04 13:30:18;;;;;;;;;;;;;;;;;;5029872;28;19925;-65
2021/08/04 13:32:45;;;;;;;;;;;;;;;;;;5033992;28;20292;-64
2021/08/04 13:35:12;;;;;;;;;;;;;;;;;;5033607;28;20363;-67
2021/08/04 13:37:39;;;;;;;;;;;;;;;;;;5027184;28;19925;-67
2021/08/04 13:40:07;;;;;;;;;;;;;;;;;;5029030;28;19932;-67
2021/08/04 13:42:34;;;;;;;;;;;;;;;;;;5033590;28;20020;-68
2021/08/04 13:45:01;;;;;;;;;;;;;;;;;;5030326;28;19979;-67
2021/08/04 13:47:30;;;;;;;;;;;;;;;;;;5029278;28;20279;-68
2021/08/04 13:50:02;;;;;;;;;;;;;;;;;;5031432;28;20312;-67
2021/08/04 13:52:28;;;;;;;;;;;;;;;;;;5024477;28;19926;-67
2021/08/04 13:54:55;;;;;;;;;;;;;;;;;;5035123;28;19956;-67
2021/08/04 13:57:22;;;;;;;;;;;;;;;;;;5033962;28;19935;-67
2021/08/04 13:59:49;;;;;;;;;;;;;;;;;;5025395;28;20381;-67
2021/08/04 14:02:16;;;;;;;;;;;;;;;;;;5029965;28;19927;-66
2021/08/04 14:04:43;;;;;;;;;;;;;;;;;;5029416;28;19936;-67
2021/08/04 14:07:10;;;;;;;;;;;;;;;;;;5027751;28;19932;-65
2021/08/04 14:09:37;;;;;;;;;;;;;;;;;;5028074;28;20282;-65
2021/08/04 14:12:04;;;;;;;;;;;;;;;;;;5027603;28;19932;-65
2021/08/04 14:14:31;;;;;;;;;;;;;;;;;;5028579;28;19925;-65
2021/08/04 14:16:58;;;;;;;;;;;;;;;;;;5028926;28;20300;-67
2021/08/04 14:19:25;;;;;;;;;;;;;;;;;;5033107;28;19956;-67
2021/08/04 14:21:52;;;;;;;;;;;;;;;;;;5022589;28;20393;-67
2021/08/04 14:24:19;;;;;;;;;;;;;;;;;;5023439;28;19967;-67
2021/08/04 14:26:46;;;;;;;;;;;;;;;;;;5024461;28;20385;-67
2021/08/04 14:29:13;;;;;;;;;;;;;;;;;;5021781;28;19936;-68
2021/08/04 14:31:40;;;;;;;;;;;;;;;;;;5024411;28;19925;-67
2021/08/04 14:34:07;;;;;;;;;;;;;;;;;;5022040;28;19925;-67
2021/08/04 14:36:34;;;;;;;;;;;;;;;;;;5025670;28;19930;-67
2021/08/04 14:39:00;;;;;;;;;;;;;;;;;;5021483;28;20392;-67
2021/08/04 14:41:27;;;;;;;;;;;;;;;;;;5021455;28;19929;-67
2021/08/04 14:43:54;;;;;;;;;;;;;;;;;;5023237;28;20027;-67
2021/08/04 14:46:21;;;;;;;;;;;;;;;;;;5021532;28;19940;-66
2021/08/04 14:48:48;;;;;;;;;;;;;;;;;;5026665;28;19933;-64
2021/08/04 14:51:15;;;;;;;;;;;;;;;;;;5029814;28;19929;-64
2021/08/04 14:53:42;;;;;;;;;;;;;;;;;;5029841;28;19925;-67
2021/08/04 14:56:11;;;;;;;;;;;;;;;;;;5030041;28;19940;-67
2021/08/04 14:58:38;;;;;;;;;;;;;;;;;;5027626;28;19979;-67
2021/08/04 15:01:05;;;;;;;;;;;;;;;;;;5029400;28;19959;-66
2021/08/04 15:03:32;;;;;;;;;;;;;;;;;;5026403;28;20016;-67
2021/08/04 15:05:59;;;;;;;;;;;;;;;;;;5025294;28;19925;-67
2021/08/04 15:08:26;;;;;;;;;;;;;;;;;;5024292;28;19978;-67
2021/08/04 15:10:57;;;;;;;;;;;;;;;;;;5025319;28;20309;-68
2021/08/04 15:13:24;;;;;;;;;;;;;;;;;;5023215;28;19933;-67
2021/08/04 15:15:51;;;;;;;;;;;;;;;;;;5027111;28;19932;-66
2021/08/04 15:18:18;;;;;;;;;;;;;;;;;;5027120;28;19935;-68
2021/08/04 15:20:45;;;;;;;;;;;;;;;;;;5029015;28;20278;-67
2021/08/04 15:23:12;;;;;;;;;;;;;;;;;;5028428;28;19968;-66
2021/08/04 15:25:39;;;;;;;;;;;;;;;;;;5028856;28;20313;-67
2021/08/04 15:28:06;;;;;;;;;;;;;;;;;;5026941;28;20373;-66
2021/08/04 15:30:33;;;;;;;;;;;;;;;;;;5026844;28;19925;-67
2021/08/04 15:32:59;;;;;;;;;;;;;;;;;;5024305;28;19935;-66
2021/08/04 15:35:26;;;;;;;;;;;;;;;;;;5025013;28;19925;-67
2021/08/04 15:37:54;;;;;;;;;;;;;;;;;;5026503;28;19936;-67
2021/08/04 15:40:21;;;;;;;;;;;;;;;;;;5039709;22;20246;-65
2021/08/04 15:42:49;;;;;;;;;;;;;;;;;;5018057;28;19936;-65
2021/08/04 15:45:16;;;;;;;;;;;;;;;;;;5017867;28;20316;-66
2021/08/04 15:47:43;;;;;;;;;;;;;;;;;;5019989;28;19925;-66
2021/08/04 15:50:10;;;;;;;;;;;;;;;;;;5016561;28;19933;-67
2021/08/04 15:52:37;;;;;;;;;;;;;;;;;;5016194;28;20020;-66
2021/08/04 15:55:04;;;;;;;;;;;;;;;;;;5015661;28;20378;-67
2021/08/04 15:57:31;;;;;;;;;;;;;;;;;;5017851;28;19936;-67
2021/08/04 15:59:58;;;;;;;;;;;;;;;;;;5011315;28;19936;-66
2021/08/04 16:02:25;;;;;;;;;;;;;;;;;;5016174;28;19926;-66
2021/08/04 16:04:52;;;;;;;;;;;;;;;;;;5012867;28;19929;-66
2021/08/04 16:07:19;;;;;;;;;;;;;;;;;;5018812;28;20008;-67
2021/08/04 16:09:46;;;;;;;;;;;;;;;;;;5017810;28;19926;-66
2021/08/04 16:12:13;;;;;;;;;;;;;;;;;;5017530;28;19926;-66
2021/08/04 16:14:40;;;;;;;;;;;;;;;;;;5016449;28;19929;-66
2021/08/04 16:17:07;;;;;;;;;;;;;;;;;;5014216;28;19925;-67
2021/08/04 16:19:34;;;;;;;;;;;;;;;;;;5015596;28;20328;-67
2021/08/04 16:22:01;;;;;;;;;;;;;;;;;;5018598;28;19935;-66
2021/08/04 16:24:28;;;;;;;;;;;;;;;;;;5009854;28;19925;-67
2021/08/04 16:26:56;;;;;;;;;;;;;;;;;;5019252;28;19932;-67
2021/08/04 16:29:23;;;;;;;;;;;;;;;;;;5012156;28;19925;-66
2021/08/04 16:31:50;;;;;;;;;;;;;;;;;;5012100;28;19925;-66
2021/08/04 16:34:17;;;;;;;;;;;;;;;;;;5014946;28;19980;-66
2021/08/04 16:36:44;;;;;;;;;;;;;;;;;;5016167;28;19944;-66
2021/08/04 16:39:11;;;;;;;;;;;;;;;;;;5011838;28;19933;-67
2021/08/04 16:41:38;;;;;;;;;;;;;;;;;;5018095;28;19979;-67
2021/08/04 16:44:05;;;;;;;;;;;;;;;;;;5018966;28;19932;-67